Time;durP1;ratioP1;P1;durP2;ratioP2;P2;SDS_P1;SDS_P2;PMS_P1;PMS_P2;Temp;Humidity;BMP_temperature;BMP_pressure;BME280_temperature;BME280_humidity;BME280_pressure;Samples;Min_cycle;Max_cycle;Signal;HPM_P1;HPM_P2
2022/01/20 00:02:06;;;;;;;0.20;0.10;;;;;;;5.57;100.00;100955.06;4987081;28;20466;-51
2022/01/20 00:04:45;;;;;;;0.20;0.10;;;;;;;5.74;100.00;100948.06;4992116;28;20545;-52
2022/01/20 00:26:09;;;;;;;0.20;0.10;;;;;;;5.70;100.00;100977.97;4982259;28;20453;-53
2022/01/20 00:33:47;;;;;;;0.20;0.10;;;;;;;5.48;100.00;100973.50;4991416;28;20456;-52
2022/01/20 00:38:44;;;;;;;0.20;0.10;;;;;;;5.69;100.00;100978.84;4983464;28;20954;-53
2022/01/20 00:41:15;;;;;;;0.20;0.10;;;;;;;5.63;100.00;100978.84;4985161;28;20493;-52
2022/01/20 00:43:42;;;;;;;0.20;0.20;;;;;;;5.53;100.00;100972.66;4993179;28;20453;-52
2022/01/20 00:46:10;;;;;;;0.30;0.30;;;;;;;5.77;100.00;100973.59;4995111;28;20480;-52
2022/01/20 00:48:37;;;;;;;0.20;0.10;;;;;;;5.75;100.00;100967.41;4981848;28;20454;-52
2022/01/20 00:51:03;;;;;;;0.20;0.10;;;;;;;5.85;100.00;100967.44;4994900;28;20911;-52
2022/01/20 00:53:30;;;;;;;0.20;0.10;;;;;;;5.60;100.00;100974.41;4990612;28;20470;-52
2022/01/20 00:55:57;;;;;;;0.20;0.10;;;;;;;5.62;100.00;100977.06;4986569;28;20453;-52
2022/01/20 00:58:23;;;;;;;0.20;0.10;;;;;;;5.58;100.00;100988.47;4994798;28;20457;-53
2022/01/20 01:00:50;;;;;;;0.20;0.10;;;;;;;5.63;100.00;100989.38;4983359;28;20451;-51
2022/01/20 01:03:17;;;;;;;0.20;0.10;;;;;;;5.62;100.00;100985.88;4993613;28;20479;-52
2022/01/20 01:06:34;;;;;;;0.20;0.10;;;;;;;5.87;100.00;100985.91;4994789;28;20463;-52
2022/01/20 01:08:38;;;;;;;0.20;0.10;;;;;;;5.60;100.00;100987.59;4983389;28;20457;-52
2022/01/20 01:11:04;;;;;;;0.20;0.20;;;;;;;5.79;100.00;100992.94;4991854;28;20497;-52
2022/01/20 01:13:31;;;;;;;0.20;0.20;;;;;;;5.66;100.00;100994.66;4984628;28;20469;-52
2022/01/20 01:15:58;;;;;;;0.20;0.10;;;;;;;5.78;100.00;100996.44;4994970;28;20997;-52
2022/01/20 01:23:55;;;;;;;0.20;0.10;;;;;;;5.78;100.00;101001.72;4991568;28;20445;-52
2022/01/20 01:26:25;;;;;;;0.20;0.10;;;;;;;5.72;100.00;101005.22;4983569;28;20869;-52
2022/01/20 01:28:52;;;;;;;0.20;0.10;;;;;;;5.76;100.00;100992.94;4994335;28;20863;-52
2022/01/20 01:34:30;;;;;;;0.20;0.10;;;;;;;5.72;100.00;100999.06;4990348;28;20508;-52
2022/01/20 01:36:50;;;;;;;0.20;0.10;;;;;;;5.68;100.00;101006.09;4991457;28;20962;-52
2022/01/20 01:39:17;;;;;;;0.20;0.10;;;;;;;5.78;100.00;101004.38;4984328;28;20456;-52
2022/01/20 01:41:45;;;;;;;0.20;0.10;;;;;;;5.88;100.00;101008.75;4984438;28;20849;-52
2022/01/20 01:44:19;;;;;;;5.27;0.67;;;;;;;5.84;100.00;101005.25;4993948;28;20481;-52
2022/01/20 01:46:46;;;;;;;0.20;0.10;;;;;;;5.90;100.00;101001.78;4980770;28;20449;-52
2022/01/20 01:49:14;;;;;;;0.20;0.20;;;;;;;5.75;100.00;101006.97;4993893;28;20454;-53
2022/01/20 01:51:40;;;;;;;0.30;0.20;;;;;;;5.72;100.00;101012.25;4990086;28;20498;-52
2022/01/20 01:54:07;;;;;;;0.20;0.20;;;;;;;5.95;100.00;101015.88;4984653;28;20480;-52
2022/01/20 01:56:35;;;;;;;0.20;0.10;;;;;;;5.76;100.00;101014.03;4993858;28;20508;-52
2022/01/20 01:59:02;;;;;;;0.20;0.10;;;;;;;5.84;100.00;101013.16;4983692;28;20482;-52
2022/01/20 02:01:33;;;;;;;0.20;0.10;;;;;;;5.64;100.00;101025.44;4978162;28;20445;-52
2022/01/20 02:04:11;;;;;;;0.20;0.10;;;;;;;5.69;100.00;101026.31;4993584;28;20456;-52
2022/01/20 02:17:59;;;;;;;0.20;0.10;;;;;;;5.92;100.00;100997.41;4988758;28;20458;-52
2022/01/20 02:20:26;;;;;;;0.20;0.20;;;;;;;5.73;100.00;100991.16;4987112;28;20445;-52
2022/01/20 02:22:53;;;;;;;0.20;0.10;;;;;;;5.73;100.00;100996.41;4990766;28;21009;-52
2022/01/20 02:25:22;;;;;;;0.20;0.10;;;;;;;5.85;100.00;100998.22;4980413;28;20513;-52
2022/01/20 02:27:50;;;;;;;0.23;0.17;;;;;;;5.73;100.00;100998.19;4993441;28;20449;-52
2022/01/20 02:30:18;;;;;;;0.20;0.20;;;;;;;5.51;100.00;101000.78;4992403;28;20449;-52
2022/01/20 02:32:56;;;;;;;0.20;0.10;;;;;;;5.51;100.00;101000.78;4981075;28;20477;-52
2022/01/20 02:35:25;;;;;;;0.20;0.10;;;;;;;5.55;100.00;101013.06;4992337;28;20963;-52
2022/01/20 02:37:59;;;;;;;0.20;0.13;;;;;;;5.68;100.00;101011.38;4983379;28;20478;-52
2022/01/20 02:45:40;;;;;;;0.20;0.10;;;;;;;5.59;100.00;101013.97;4980715;28;20499;-52
2022/01/20 02:48:07;;;;;;;0.20;0.10;;;;;;;5.50;100.00;101013.94;4979785;28;20450;-52
2022/01/20 02:50:33;;;;;;;0.20;0.10;;;;;;;5.45;100.00;101000.72;4993226;28;20862;-52
2022/01/20 02:53:00;;;;;;;0.30;0.20;;;;;;;5.50;100.00;100999.00;4992041;28;20847;-52
2022/01/20 02:55:26;;;;;;;0.20;0.10;;;;;;;5.50;100.00;101003.41;4981114;28;20457;-52
2022/01/20 02:57:53;;;;;;;0.20;0.10;;;;;;;5.50;100.00;101006.03;4992889;28;20935;-52
2022/01/20 03:00:20;;;;;;;0.20;0.10;;;;;;;5.41;100.00;101006.88;4986076;28;20451;-52
2022/01/20 03:02:48;;;;;;;0.20;0.10;;;;;;;5.55;100.00;101015.72;4987661;28;20504;-52
2022/01/20 03:05:16;;;;;;;0.20;0.10;;;;;;;5.57;100.00;101016.59;4993010;28;20454;-52
2022/01/20 03:07:45;;;;;;;0.20;0.10;;;;;;;5.63;100.00;101013.13;4979786;28;20513;-52
2022/01/20 03:10:12;;;;;;;0.20;0.20;;;;;;;5.30;100.00;101016.50;4991503;28;20947;-52
2022/01/20 03:12:39;;;;;;;0.20;0.10;;;;;;;5.14;100.00;101014.66;4979552;28;21027;-52
2022/01/20 03:15:06;;;;;;;0.20;0.10;;;;;;;5.06;100.00;101017.22;4992841;28;20449;-52
2022/01/20 03:17:33;;;;;;;0.30;0.20;;;;;;;4.99;100.00;101012.81;4989623;28;20516;-52
2022/01/20 03:20:00;;;;;;;0.30;0.20;;;;;;;5.17;100.00;101020.81;4982968;28;20442;-52
2022/01/20 03:22:27;;;;;;;0.20;0.10;;;;;;;5.50;100.00;101016.59;4992578;28;20477;-52
2022/01/20 03:24:55;;;;;;;0.20;0.10;;;;;;;5.37;100.00;101015.66;4982866;28;20450;-52
2022/01/20 03:27:21;;;;;;;0.20;0.10;;;;;;;5.26;100.00;101025.25;4989830;28;20453;-52
2022/01/20 03:29:48;;;;;;;0.20;0.10;;;;;;;5.28;100.00;101027.03;4992904;28;20511;-52
2022/01/20 03:32:15;;;;;;;0.20;0.10;;;;;;;5.12;100.00;101021.69;4979238;28;20501;-52
2022/01/20 03:34:41;;;;;;;0.20;0.10;;;;;;;5.00;100.00;101033.91;4992871;28;20488;-51
2022/01/20 03:37:08;;;;;;;0.20;0.10;;;;;;;5.03;100.00;101035.66;4988448;28;20454;-52
2022/01/20 03:39:35;;;;;;;0.20;0.10;;;;;;;5.08;100.00;101033.09;4985200;28;20450;-53
2022/01/20 03:42:02;;;;;;;0.20;0.10;;;;;;;5.18;100.00;101030.47;4979074;28;20623;-52
2022/01/20 03:44:28;;;;;;;0.20;0.13;;;;;;;5.12;100.00;101032.22;4992517;28;20507;-52
2022/01/20 03:46:58;;;;;;;0.20;0.10;;;;;;;5.13;100.00;101033.97;4989521;28;20454;-52
2022/01/20 03:49:35;;;;;;;0.20;0.10;;;;;;;5.18;100.00;101032.22;4988210;28;20884;-52
2022/01/20 03:52:04;;;;;;;0.30;0.20;;;;;;;4.99;100.00;101031.25;4983062;28;20496;-52
2022/01/20 03:54:30;;;;;;;0.20;0.10;;;;;;;4.81;100.00;101024.13;4982640;28;21014;-52
2022/01/20 03:56:57;;;;;;;0.40;0.40;;;;;;;4.94;100.00;101035.63;4996178;28;20487;-53
2022/01/20 03:59:24;;;;;;;0.20;0.10;;;;;;;4.93;100.00;101032.09;4995881;28;20453;-52
2022/01/20 04:01:51;;;;;;;0.20;0.10;;;;;;;4.78;100.00;101039.88;4983515;28;20543;-52
2022/01/20 04:04:17;;;;;;;0.20;0.10;;;;;;;4.71;100.00;101041.63;4995866;28;20536;-52
2022/01/20 04:06:44;;;;;;;0.20;0.10;;;;;;;4.55;100.00;101034.47;4988256;28;20450;-52
2022/01/20 04:09:10;;;;;;;0.20;0.10;;;;;;;4.58;100.00;101030.97;4990269;28;20484;-52
2022/01/20 04:11:37;;;;;;;0.20;0.10;;;;;;;4.52;100.00;101031.78;4988035;28;20545;-52
2022/01/20 04:14:04;;;;;;;0.20;0.10;;;;;;;4.53;100.00;101036.22;4990446;28;20450;-52
2022/01/20 04:16:52;;;;;;;0.20;0.10;;;;;;;4.54;100.00;101029.19;4995786;28;20504;-52
2022/01/20 04:19:19;;;;;;;0.20;0.10;;;;;;;4.50;100.00;101023.00;4982460;28;20482;-52
2022/01/20 04:21:46;;;;;;;0.20;0.10;;;;;;;4.45;100.00;101032.63;4995391;28;20895;-52
2022/01/20 04:24:13;;;;;;;0.20;0.10;;;;;;;4.26;100.00;101021.06;4990693;28;20515;-53
2022/01/20 04:26:41;;;;;;;0.20;0.10;;;;;;;4.04;100.00;101024.34;4987627;28;20450;-52
2022/01/20 04:29:09;;;;;;;0.20;0.10;;;;;;;4.03;100.00;101022.59;4995401;28;20942;-52
2022/01/20 04:31:37;;;;;;;0.30;0.10;;;;;;;4.06;100.00;101002.47;4983227;28;20544;-52
2022/01/20 04:34:05;;;;;;;0.20;0.10;;;;;;;3.97;100.00;101005.00;4995212;28;20504;-51
2022/01/20 04:36:33;;;;;;;0.20;0.10;;;;;;;3.97;100.00;101010.25;4995370;28;20450;-52
2022/01/20 04:39:01;;;;;;;0.20;0.10;;;;;;;3.89;100.00;101011.06;4983211;28;20502;-52
2022/01/20 04:41:29;;;;;;;0.20;0.10;;;;;;;3.55;100.00;101011.56;4982060;28;20450;-52
2022/01/20 04:43:58;;;;;;;0.20;0.10;;;;;;;3.64;100.00;101013.41;4995114;28;20453;-52
2022/01/20 04:46:37;;;;;;;0.20;0.10;;;;;;;3.58;100.00;101008.13;4994948;28;20449;-51
2022/01/20 04:57:21;;;;;;;0.20;0.10;;;;;;;2.90;100.00;101008.13;4984213;28;20450;-52
2022/01/20 04:59:51;;;;;;;0.20;0.10;;;;;;;2.91;100.00;100981.00;4992574;28;20516;-51
2022/01/20 05:02:18;;;;;;;0.20;0.10;;;;;;;2.89;100.00;100985.34;4994932;28;20465;-52
2022/01/20 05:04:45;;;;;;;0.20;0.10;;;;;;;2.66;100.00;100988.53;4976441;28;20535;-52
2022/01/20 05:07:19;;;;;;;0.20;0.10;;;;;;;2.50;100.00;100991.78;4986828;28;20896;-52
2022/01/20 05:09:46;;;;;;;0.20;0.10;;;;;;;2.67;100.00;100987.66;4994539;28;20868;-51
2022/01/20 05:12:16;;;;;;;0.20;0.10;;;;;;;2.76;100.00;100992.16;4994740;28;20520;-52
2022/01/20 05:14:43;;;;;;;0.20;0.10;;;;;;;2.84;100.00;100998.41;4982329;28;20515;-52
2022/01/20 05:17:10;;;;;;;0.20;0.10;;;;;;;2.66;100.00;100991.16;4994725;28;20805;-52
2022/01/20 05:19:36;;;;;;;0.20;0.10;;;;;;;2.62;100.00;101007.72;4994551;28;20445;-51
2022/01/20 05:22:03;;;;;;;0.20;0.10;;;;;;;3.01;100.00;101011.75;4991059;28;21017;-52
2022/01/20 05:24:30;;;;;;;0.20;0.10;;;;;;;2.92;100.00;101027.41;4994345;28;20454;-52
2022/01/20 05:26:57;;;;;;;0.20;0.10;;;;;;;2.76;100.00;101014.91;4981565;28;20454;-51
2022/01/20 05:29:24;;;;;;;0.20;0.10;;;;;;;2.83;100.00;101009.75;4994493;28;20457;-51
2022/01/20 05:31:52;;;;;;;0.20;0.10;;;;;;;2.81;100.00;101023.72;4994004;28;20556;-51
2022/01/20 05:34:19;;;;;;;0.20;0.10;;;;;;;2.99;100.00;101031.84;4993947;28;20476;-53
2022/01/20 05:36:49;;;;;;;0.20;0.10;;;;;;;3.03;100.00;101038.94;4993237;28;20449;-52
2022/01/20 05:39:16;;;;;;;0.20;0.10;;;;;;;3.08;100.00;101029.38;4983781;28;20848;-51
2022/01/20 05:41:43;;;;;;;0.20;0.10;;;;;;;3.07;100.00;101027.59;4992704;28;20543;-51
2022/01/20 05:44:12;;;;;;;0.20;0.10;;;;;;;3.09;100.00;101035.50;4982573;28;20936;-51
2022/01/20 05:46:47;;;;;;;0.20;0.10;;;;;;;3.25;100.00;101034.84;4993746;28;20512;-51
2022/01/20 05:49:20;;;;;;;0.20;0.10;;;;;;;3.14;100.00;101039.94;4983117;28;20496;-51
2022/01/20 05:51:52;;;;;;;0.20;0.10;;;;;;;3.25;100.00;101026.97;4987216;28;20581;-51
2022/01/20 05:54:20;;;;;;;0.20;0.20;;;;;;;3.07;100.00;101024.97;4974567;28;20442;-51
2022/01/20 05:56:47;;;;;;;0.30;0.20;;;;;;;3.27;100.00;101019.97;4992557;28;20458;-51
2022/01/20 05:59:14;;;;;;;0.20;0.10;;;;;;;3.29;100.00;101013.03;4993754;28;20504;-51
2022/01/20 06:01:41;;;;;;;0.20;0.10;;;;;;;3.29;100.00;101020.91;4980305;28;20473;-52
2022/01/20 06:04:09;;;;;;;0.20;0.10;;;;;;;3.34;100.00;101019.19;4993697;28;20458;-51
2022/01/20 06:06:37;;;;;;;0.20;0.10;;;;;;;3.56;100.00;101026.50;4987579;28;20825;-51
2022/01/20 06:09:04;;;;;;;0.20;0.13;;;;;;;3.59;100.00;101027.38;4986605;28;20506;-51
2022/01/20 06:11:32;;;;;;;0.20;0.10;;;;;;;3.50;100.00;101015.00;4986696;28;20553;-51
2022/01/20 06:13:59;;;;;;;0.20;0.10;;;;;;;3.62;100.00;101009.03;4986968;28;20499;-51
2022/01/20 06:16:25;;;;;;;0.20;0.10;;;;;;;3.60;100.00;101003.75;4993509;28;20457;-51
2022/01/20 06:18:52;;;;;;;0.20;0.10;;;;;;;3.64;100.00;101000.28;4980536;28;20538;-51
2022/01/20 06:21:19;;;;;;;0.20;0.10;;;;;;;3.69;100.00;101001.19;4993431;28;20959;-52
2022/01/20 06:23:47;;;;;;;0.20;0.10;;;;;;;3.67;100.00;101000.31;4992814;28;20955;-52
2022/01/20 06:26:14;;;;;;;0.20;0.10;;;;;;;3.82;100.00;101000.47;4981430;28;20504;-52
2022/01/20 06:28:40;;;;;;;0.20;0.10;;;;;;;3.65;100.00;101001.16;4992969;28;20942;-52
2022/01/20 06:31:09;;;;;;;0.20;0.10;;;;;;;3.64;100.00;101002.03;4985748;28;20529;-51
2022/01/20 06:33:36;;;;;;;0.20;0.10;;;;;;;3.63;100.00;100995.00;4987788;28;21010;-52
2022/01/20 06:36:03;;;;;;;0.20;0.10;;;;;;;3.65;100.00;101009.94;4992945;28;21005;-52
2022/01/20 06:38:30;;;;;;;0.20;0.10;;;;;;;3.68;100.00;101015.22;4981111;28;20453;-52
2022/01/20 06:40:56;;;;;;;0.20;0.10;;;;;;;3.72;100.00;101011.78;4984521;28;20458;-51
2022/01/20 06:43:23;;;;;;;0.20;0.10;;;;;;;3.82;100.00;101023.25;4988875;28;20524;-51
2022/01/20 06:45:50;;;;;;;0.20;0.10;;;;;;;3.86;100.00;101015.44;4991651;28;20453;-52
2022/01/20 06:48:17;;;;;;;0.20;0.10;;;;;;;3.85;100.00;101011.03;4979977;28;20450;-52
2022/01/20 06:50:43;;;;;;;0.20;0.10;;;;;;;3.95;100.00;101024.25;4993050;28;20462;-52
2022/01/20 06:53:11;;;;;;;0.20;0.10;;;;;;;4.02;100.00;101032.25;4989893;28;21133;-52
2022/01/20 06:55:37;;;;;;;0.20;0.10;;;;;;;3.98;100.00;101040.09;4982851;28;20508;-52
2022/01/20 06:58:04;;;;;;;0.20;0.10;;;;;;;4.09;100.00;101043.69;4992708;28;20959;-52
2022/01/20 07:00:31;;;;;;;0.20;0.10;;;;;;;4.12;100.00;101056.91;4992981;28;20535;-52
2022/01/20 07:02:58;;;;;;;0.20;0.10;;;;;;;4.10;100.00;101042.81;4979432;28;20975;-52
2022/01/20 07:05:24;;;;;;;0.20;0.10;;;;;;;4.14;100.00;101047.28;4992809;28;20962;-52
2022/01/20 07:07:51;;;;;;;0.20;0.10;;;;;;;4.14;100.00;101061.31;4989087;28;20834;-52
2022/01/20 07:10:19;;;;;;;0.20;0.10;;;;;;;4.19;100.00;101058.69;4990936;28;20456;-52
2022/01/20 07:12:47;;;;;;;0.20;0.10;;;;;;;4.24;100.00;101061.38;4979845;28;20493;-52
2022/01/20 07:15:15;;;;;;;0.20;0.10;;;;;;;4.19;100.00;101068.34;4992711;28;20800;-52
2022/01/20 07:17:42;;;;;;;0.20;0.10;;;;;;;4.26;100.00;101072.81;4988526;28;20450;-52
2022/01/20 07:20:10;;;;;;;0.20;0.10;;;;;;;4.42;100.00;101064.19;4984223;28;20504;-52
2022/01/20 07:22:36;;;;;;;0.20;0.10;;;;;;;4.30;100.00;101066.72;4995239;28;20477;-52
2022/01/20 07:25:04;;;;;;;0.20;0.10;;;;;;;3.98;100.00;101069.91;4985540;28;20853;-52
2022/01/20 07:27:31;;;;;;;0.20;0.10;;;;;;;4.08;100.00;101079.63;4994838;28;20457;-52
2022/01/20 07:30:16;;;;;;;0.20;0.10;;;;;;;4.18;100.00;101078.00;4994496;28;20480;-53
2022/01/20 07:32:42;;;;;;;0.20;0.10;;;;;;;4.20;100.00;101088.53;4982829;28;20555;-52
2022/01/20 07:35:12;;;;;;;0.20;0.10;;;;;;;4.23;100.00;101089.44;4996167;28;20469;-52
2022/01/20 07:37:38;;;;;;;0.20;0.20;;;;;;;4.32;100.00;101088.66;4988252;28;20450;-52
2022/01/20 07:40:06;;;;;;;0.20;0.10;;;;;;;4.30;100.00;101096.53;4991047;28;20512;-52
2022/01/20 07:42:32;;;;;;;0.20;0.10;;;;;;;4.36;100.00;101101.84;4988560;28;20469;-52
2022/01/20 07:44:59;;;;;;;0.20;0.10;;;;;;;4.56;100.00;101107.31;4991746;28;20480;-52
2022/01/20 07:47:26;;;;;;;0.20;0.10;;;;;;;4.52;100.00;101102.88;4985485;28;20457;-52
2022/01/20 07:49:52;;;;;;;0.20;0.10;;;;;;;4.44;100.00;101101.94;4995825;28;20453;-52
2022/01/20 07:52:19;;;;;;;0.20;0.10;;;;;;;4.49;100.00;101100.22;4987060;28;20909;-52
2022/01/20 07:54:46;;;;;;;0.20;0.10;;;;;;;4.67;100.00;101091.63;4991897;28;20527;-52
2022/01/20 07:57:13;;;;;;;0.20;0.10;;;;;;;4.75;100.00;101101.31;4996041;28;20504;-52
2022/01/20 07:59:39;;;;;;;0.20;0.10;;;;;;;4.76;100.00;101103.09;4982649;28;20882;-52
2022/01/20 08:02:06;;;;;;;0.20;0.10;;;;;;;4.79;100.00;101111.88;4995984;28;20492;-52
2022/01/20 08:04:33;;;;;;;0.20;0.10;;;;;;;4.74;100.00;101114.47;4993072;28;20959;-52
2022/01/20 08:06:59;;;;;;;0.20;0.10;;;;;;;4.76;100.00;101118.88;4985991;28;20480;-52
2022/01/20 08:09:26;;;;;;;0.20;0.10;;;;;;;4.91;100.00;101122.50;4994469;28;20806;-52
2022/01/20 08:12:13;;;;;;;0.20;0.10;;;;;;;5.01;100.00;101127.88;4983562;28;20537;-52
2022/01/20 08:14:40;;;;;;;0.20;0.10;;;;;;;4.95;100.00;101129.59;4994932;28;20496;-52
2022/01/20 08:17:06;;;;;;;0.20;0.10;;;;;;;5.13;100.00;101134.09;4995674;28;20536;-53
2022/01/20 08:19:33;;;;;;;0.20;0.10;;;;;;;5.24;100.00;101141.22;4982893;28;20453;-52
2022/01/20 08:22:00;;;;;;;0.20;0.10;;;;;;;5.18;100.00;101150.81;4995642;28;20477;-52
2022/01/20 08:24:52;;;;;;;0.20;0.10;;;;;;;5.08;100.00;101157.81;4985138;28;20943;-52
2022/01/20 08:27:20;;;;;;;0.20;0.10;;;;;;;4.99;100.00;101169.13;4982158;28;20446;-52
2022/01/20 08:29:46;;;;;;;0.20;0.10;;;;;;;5.06;100.00;101159.50;4995366;28;20507;-52
2022/01/20 08:32:13;;;;;;;0.20;0.10;;;;;;;4.96;100.00;101152.44;4991026;28;20490;-52
2022/01/20 08:34:40;;;;;;;0.20;0.10;;;;;;;5.01;100.00;101146.31;4985172;28;20453;-52
2022/01/20 08:37:06;;;;;;;0.20;0.10;;;;;;;5.10;100.00;101163.06;4995103;28;20461;-52
2022/01/20 08:42:03;;;;;;;0.20;0.10;;;;;;;5.07;100.00;101163.91;4981932;28;20473;-52
2022/01/20 08:44:29;;;;;;;0.20;0.10;;;;;;;5.11;100.00;101167.47;4995325;28;20453;-52
2022/01/20 08:46:58;;;;;;;0.20;0.10;;;;;;;5.05;100.00;101173.56;4990191;28;20889;-52
2022/01/20 08:49:25;;;;;;;0.20;0.10;;;;;;;5.35;100.00;101178.19;4987273;28;20458;-52
2022/01/20 08:51:51;;;;;;;0.20;0.10;;;;;;;5.47;100.00;101183.53;4994659;28;20863;-52
2022/01/20 08:54:19;;;;;;;0.20;0.10;;;;;;;5.22;100.00;101197.44;4983153;28;20454;-52
2022/01/20 08:56:47;;;;;;;0.20;0.10;;;;;;;5.05;100.00;101207.81;4993718;28;21358;-52
2022/01/20 08:59:13;;;;;;;0.20;0.10;;;;;;;5.16;100.00;101221.09;4994953;28;20512;-52
2022/01/20 09:01:41;;;;;;;0.20;0.10;;;;;;;4.96;100.00;101213.03;4981768;28;20469;-52
2022/01/20 09:04:08;;;;;;;0.20;0.10;;;;;;;4.88;100.00;101233.13;4994958;28;20453;-52
2022/01/20 09:06:34;;;;;;;0.20;0.10;;;;;;;4.90;100.00;101234.91;4988578;28;20513;-52
2022/01/20 09:09:02;;;;;;;0.20;0.10;;;;;;;4.97;100.00;101234.09;4987749;28;20457;-52
2022/01/20 09:11:36;;;;;;;0.63;0.63;;;;;;;4.92;100.00;101229.63;4988398;28;20827;-52
2022/01/20 09:16:50;;;;;;;0.20;0.10;;;;;;;5.38;100.00;101230.94;4994590;28;20828;-52
2022/01/20 09:19:17;;;;;;;0.20;0.10;;;;;;;5.33;100.00;101224.72;4981032;28;20513;-52
2022/01/20 09:21:45;;;;;;;0.20;0.10;;;;;;;5.49;100.00;101229.28;4994330;28;20524;-54
2022/01/20 09:24:12;;;;;;;0.20;0.10;;;;;;;5.22;100.00;101234.31;4990190;28;20999;-52
2022/01/20 09:26:38;;;;;;;0.20;0.10;;;;;;;5.32;100.00;101230.88;4984290;28;21027;-52
2022/01/20 09:29:05;;;;;;;0.20;0.10;;;;;;;5.21;100.00;101229.94;4994279;28;20449;-52
2022/01/20 09:31:37;;;;;;;0.20;0.10;;;;;;;5.06;100.00;101239.44;4982948;28;20988;-51
2022/01/20 09:34:04;;;;;;;0.20;0.10;;;;;;;4.91;100.00;101234.03;4992605;28;20532;-52
2022/01/20 09:36:31;;;;;;;0.20;0.10;;;;;;;4.92;100.00;101238.44;4994436;28;20869;-52
2022/01/20 09:38:58;;;;;;;0.20;0.10;;;;;;;4.82;100.00;101240.97;4982291;28;20481;-52
2022/01/20 09:41:24;;;;;;;0.20;0.10;;;;;;;4.94;100.00;101241.97;4981833;28;20832;-52
2022/01/20 09:43:51;;;;;;;0.20;0.10;;;;;;;4.96;100.00;101245.50;4993040;28;20497;-52
2022/01/20 09:46:18;;;;;;;0.20;0.20;;;;;;;4.88;100.00;101243.66;4993877;28;20477;-52
2022/01/20 09:48:45;;;;;;;0.20;0.10;;;;;;;4.98;100.00;101249.03;4980695;28;20462;-52
2022/01/20 09:51:13;;;;;;;0.20;0.17;;;;;;;5.00;100.00;101249.94;4981107;28;20450;-52
2022/01/20 09:53:40;;;;;;;0.20;0.10;;;;;;;5.02;100.00;101266.63;4994044;28;20496;-52
2022/01/20 09:56:07;;;;;;;0.20;0.10;;;;;;;5.08;100.00;101262.31;4993480;28;20508;-52
2022/01/20 09:58:36;;;;;;;0.20;0.10;;;;;;;5.26;100.00;101265.97;4981772;28;20478;-52
2022/01/20 10:01:03;;;;;;;0.20;0.13;;;;;;;5.27;100.00;101269.50;4993579;28;20511;-52
2022/01/20 10:03:31;;;;;;;0.20;0.10;;;;;;;5.20;100.00;101265.91;4986451;28;20471;-52
2022/01/20 10:06:00;;;;;;;0.20;0.10;;;;;;;5.25;100.00;101277.41;4988010;28;20817;-52
2022/01/20 10:08:28;;;;;;;0.20;0.10;;;;;;;5.57;100.00;101280.28;4993540;28;20449;-52
2022/01/20 10:10:59;;;;;;;0.20;0.10;;;;;;;5.23;100.00;101279.16;4991874;28;20449;-52
2022/01/20 10:13:28;;;;;;;0.20;0.10;;;;;;;5.39;100.00;101290.69;4982554;28;20539;-52
2022/01/20 10:16:19;;;;;;;0.43;0.40;;;;;;;5.53;100.00;101291.69;4993451;28;20499;-52
2022/01/20 10:18:59;;;;;;;0.20;0.10;;;;;;;5.47;100.00;101296.03;4980764;28;20877;-52
2022/01/20 10:21:34;;;;;;;0.20;0.10;;;;;;;5.46;100.00;101294.25;4981915;28;20489;-52
2022/01/20 10:24:11;;;;;;;0.20;0.10;;;;;;;5.54;100.00;101290.81;4990373;28;20458;-52
2022/01/20 10:26:39;;;;;;;0.20;0.10;;;;;;;5.46;100.00;101294.25;4984278;28;20445;-52
2022/01/20 10:29:10;;;;;;;0.20;0.10;;;;;;;5.53;100.00;101296.09;4993443;28;20508;-52
2022/01/20 10:31:49;;;;;;;0.20;0.10;;;;;;;5.49;100.00;101287.28;4981941;28;20489;-52
2022/01/20 10:34:19;;;;;;;0.20;0.10;;;;;;;5.53;100.00;101282.91;5022805;23;20507;-51
2022/01/20 10:36:51;;;;;;;0.20;0.10;;;;;;;5.57;100.00;101284.69;5015895;28;20921;-50
2022/01/20 10:39:18;;;;;;;0.20;0.10;;;;;;;5.58;97.98;101279.41;5017203;28;20495;-51
2022/01/20 10:41:44;;;;;;;0.20;0.10;;;;;;;5.62;98.32;101283.00;5015421;28;20453;-51
2022/01/20 10:44:14;;;;;;;0.20;0.10;;;;;;;5.94;98.50;101285.88;4990385;28;20537;-51
2022/01/20 10:46:43;;;;;;;0.20;0.10;;;;;;;5.95;97.45;101287.63;4991710;28;20453;-51
2022/01/20 10:49:09;;;;;;;0.20;0.10;;;;;;;5.90;95.96;101289.38;4995879;28;20515;-51
2022/01/20 10:51:37;;;;;;;0.20;0.10;;;;;;;5.83;92.74;101284.88;4995407;28;20504;-51
2022/01/20 10:54:11;;;;;;;0.20;0.10;;;;;;;5.75;93.32;101283.94;4993852;28;20509;-53
2022/01/20 10:56:57;;;;;;;0.20;0.10;;;;;;;5.56;92.99;101299.63;4992452;28;20442;-53
2022/01/20 10:59:24;;;;;;;0.20;0.10;;;;;;;5.57;93.33;101280.28;4994411;28;20453;-53
2022/01/20 11:01:58;;;;;;;0.20;0.10;;;;;;;5.59;93.73;101273.28;4994484;28;20512;-51
2022/01/20 11:04:25;;;;;;;0.20;0.10;;;;;;;5.75;92.79;101270.75;4994622;28;20874;-51
2022/01/20 11:06:55;;;;;;;0.20;0.10;;;;;;;5.68;92.04;101253.13;4994825;28;20449;-51
2022/01/20 11:09:23;;;;;;;0.20;0.10;;;;;;;5.66;93.47;101271.59;4993227;28;20873;-51
2022/01/20 11:11:51;;;;;;;0.20;0.20;;;;;;;5.88;94.39;101260.28;4985303;28;20507;-51
2022/01/20 11:14:18;;;;;;;0.20;0.10;;;;;;;6.09;95.23;101258.69;4995777;28;20497;-51
2022/01/20 11:16:45;;;;;;;0.20;0.10;;;;;;;6.12;91.47;101256.06;4987822;28;20501;-50
2022/01/20 11:19:20;;;;;;;0.30;0.20;;;;;;;6.01;91.08;101258.63;4997147;28;20481;-51
2022/01/20 11:21:49;;;;;;;0.20;0.10;;;;;;;6.10;92.30;101256.06;4999252;28;20465;-51
2022/01/20 11:24:23;;;;;;;0.20;0.10;;;;;;;5.92;92.87;101255.97;4987726;28;20496;-51
2022/01/20 11:26:52;;;;;;;0.20;0.20;;;;;;;5.79;92.78;101265.53;4999799;28;20460;-51
2022/01/20 11:29:19;;;;;;;0.20;0.10;;;;;;;5.63;93.79;101263.66;4992452;28;20874;-51
2022/01/20 11:31:47;;;;;;;0.30;0.20;;;;;;;5.76;94.95;101267.25;4991041;28;20457;-51
2022/01/20 11:34:35;;;;;;;0.20;0.10;;;;;;;5.82;94.82;101267.28;4996502;28;21001;-51
2022/01/20 11:37:09;;;;;;;0.20;0.13;;;;;;;5.83;95.86;101258.50;4981443;28;20463;-52
2022/01/20 11:39:47;;;;;;;0.20;0.10;;;;;;;6.33;96.78;101265.84;4985366;28;20458;-51
2022/01/20 11:42:25;;;;;;;0.20;0.20;;;;;;;6.50;90.90;101278.25;4994634;28;20449;-52
2022/01/20 11:44:52;;;;;;;0.20;0.10;;;;;;;6.57;87.73;101268.56;4997309;28;20565;-51
2022/01/20 11:47:31;;;;;;;0.20;0.10;;;;;;;6.55;90.01;101283.53;4999047;28;20934;-51
2022/01/20 11:49:58;;;;;;;0.20;0.10;;;;;;;6.48;87.63;101294.97;4999940;28;20468;-51
2022/01/20 11:52:26;;;;;;;0.20;0.10;;;;;;;6.32;87.25;101295.78;4999843;28;20513;-51
2022/01/20 11:55:12;;;;;;;0.20;0.20;;;;;;;6.29;87.82;101296.63;4999463;28;20457;-52
2022/01/20 11:57:38;;;;;;;0.20;0.20;;;;;;;5.88;87.50;101296.34;4999698;28;20461;-52
2022/01/20 12:00:24;;;;;;;0.20;0.10;;;;;;;5.90;87.84;101295.53;5001412;28;20512;-51
2022/01/20 12:02:52;;;;;;;0.20;0.10;;;;;;;5.77;88.79;101290.13;4986475;28;20472;-51
2022/01/20 12:05:29;;;;;;;0.20;0.10;;;;;;;5.89;90.37;101291.09;5003046;28;20939;-51
2022/01/20 12:08:20;;;;;;;0.20;0.10;;;;;;;6.02;91.50;101294.69;5001869;28;20445;-51
2022/01/20 12:11:01;;;;;;;0.20;0.10;;;;;;;6.00;89.76;101291.19;4984369;28;20446;-52
2022/01/20 12:13:30;;;;;;;0.20;0.20;;;;;;;6.04;90.94;101292.09;5004631;28;20492;-51
2022/01/20 12:16:02;;;;;;;0.20;0.10;;;;;;;5.81;93.32;101289.25;4998393;28;20514;-52
2022/01/20 12:18:30;;;;;;;0.20;0.10;;;;;;;5.82;94.41;101291.91;4993749;28;20533;-51
2022/01/20 12:21:05;;;;;;;0.20;0.10;;;;;;;5.83;93.27;101293.69;4997225;28;20512;-52
2022/01/20 12:23:43;;;;;;;0.20;0.10;;;;;;;5.97;92.89;101299.09;4987757;28;20477;-52
2022/01/20 12:26:09;;;;;;;0.20;0.10;;;;;;;5.85;91.70;101286.66;4986852;28;20449;-51
2022/01/20 12:28:36;;;;;;;0.20;0.10;;;;;;;6.08;91.22;101292.13;5000795;28;20787;-51
2022/01/20 12:31:04;;;;;;;0.20;0.10;;;;;;;5.89;91.04;101299.00;4996523;28;20508;-51
2022/01/20 12:33:32;;;;;;;0.20;0.10;;;;;;;6.03;89.05;101300.88;5001875;28;20497;-51
2022/01/20 12:36:03;;;;;;;0.30;0.20;;;;;;;6.04;88.98;101302.66;5006001;28;20484;-52
2022/01/20 12:38:35;;;;;;;0.20;0.13;;;;;;;6.11;87.70;101284.22;5002453;28;20471;-51
2022/01/20 12:41:05;;;;;;;0.20;0.10;;;;;;;6.22;87.69;101271.06;4995191;28;20450;-51